FBSK

Sir Seretse Khama International Airport

Gaborone, Botswana
METAR FBSK 201200Z VRB04KT CAVOK 34/02 Q1014 NOSIG
Observed Flight Rules
Jan-20 @ 12:00 UTC (an hour ago) Visual Flight Rules
Wind Visibility Clouds
Variable at 4 knots 10,000+ meters
  • Clear skies
Temperatures Readings
Current 34°C / 93°F
Dewpoint 2°C / 36°F
Humidity 13%
Altimeter 29.94" Hg
Pressure 1014 hPa
Elevation 1005
METAR FBSK 201200Z VRB04KT CAVOK 34/02 Q1014 NOSIG
Observed Flight Rules
Jan-20 @ 12:00 UTC
(an hour ago)
VFR
Wind Visibility
Variable at 4 knots 10,000+ meters
Clouds
  • Clear skies
Temperature Dewpoint
34°C / 93°F 2°C / 36°F
Humidity Altimeter Pressure
13% 29.94" Hg 1014 hPa